Time;durP1;ratioP1;P1;durP2;ratioP2;P2;SDS_P1;SDS_P2;PMS_P1;PMS_P2;Temp;Humidity;BMP_temperature;BMP_pressure;BME280_temperature;BME280_humidity;BME280_pressure;Samples;Min_cycle;Max_cycle;Signal;HPM_P1;HPM_P2
2024/04/12 00:01:47;;;;;;;0.22;0.20;;;;;;;17.18;50.62;101200.44;4392842;32;32641;-85
2024/04/12 00:04:16;;;;;;;8.32;1.05;;;;;;;17.07;50.77;101205.44;4367773;32;32702;-86
2024/04/12 00:06:52;;;;;;;0.20;0.20;;;;;;;17.25;50.44;101206.37;4379475;32;34228;-86
2024/04/12 00:09:19;;;;;;;3.15;0.68;;;;;;;17.11;50.78;101207.03;4368111;32;32854;-86
2024/04/12 00:11:48;;;;;;;0.20;0.20;;;;;;;17.00;51.13;101207.56;4379969;32;34730;-86
2024/04/12 00:14:15;;;;;;;1.62;1.52;;;;;;;17.10;50.84;101205.31;4392186;32;33777;-86
2024/04/12 00:16:43;;;;;;;1.12;0.85;;;;;;;16.94;51.01;101210.50;4392767;32;33310;-86
2024/04/12 00:19:18;;;;;;;0.98;0.35;;;;;;;16.72;51.87;101208.00;4405102;32;34301;-84
2024/04/12 00:21:49;;;;;;;1.08;0.75;;;;;;;16.77;51.70;101215.78;4367912;32;34526;-84
2024/04/12 00:24:16;;;;;;;0.30;0.30;;;;;;;16.85;51.51;101208.25;4380244;32;33070;-84
2024/04/12 00:26:45;;;;;;;0.65;0.50;;;;;;;16.77;51.94;101205.12;4379834;32;32738;-84
2024/04/12 00:29:36;;;;;;;0.55;0.55;;;;;;;16.81;51.96;101201.38;4392165;32;34747;-84
2024/04/12 00:32:13;;;;;;;0.10;0.10;;;;;;;16.77;51.94;101199.78;4395769;32;32715;-84
2024/04/12 00:34:47;;;;;;;0.62;0.62;;;;;;;16.88;51.28;101202.78;4391932;32;34638;-84
2024/04/12 00:37:16;;;;;;;0.43;0.32;;;;;;;16.88;51.20;101208.12;4405264;32;34673;-84
2024/04/12 00:39:48;;;;;;;1.55;0.62;;;;;;;16.82;51.32;101192.44;4391488;32;32289;-84
2024/04/12 00:42:31;;;;;;;1.48;1.37;;;;;;;16.78;51.49;101207.69;4403752;32;33751;-84
2024/04/12 00:44:58;;;;;;;0.43;0.43;;;;;;;16.65;52.11;101204.69;4387568;32;34719;-84
2024/04/12 00:47:27;;;;;;;0.75;0.75;;;;;;;16.74;52.00;101205.25;4391417;32;32848;-84
2024/04/12 00:49:55;;;;;;;0.80;0.65;;;;;;;16.60;52.29;101196.06;4379451;32;34234;-84
2024/04/12 00:52:23;;;;;;;0.50;0.50;;;;;;;16.55;52.62;101198.06;4380034;32;32130;-83
2024/04/12 00:54:56;;;;;;;0.10;0.10;;;;;;;16.59;52.55;101196.13;4391998;32;33544;-83
2024/04/12 00:57:23;;;;;;;0.20;0.20;;;;;;;16.60;52.48;101197.84;4379604;32;34721;-83
2024/04/12 00:59:51;;;;;;;1.33;1.23;;;;;;;16.51;52.57;101199.16;4404146;32;33352;-82
2024/04/12 01:02:22;;;;;;;0.70;0.70;;;;;;;16.52;52.69;101190.22;4371893;32;32483;-83
2024/04/12 01:04:49;;;;;;;0.47;0.37;;;;;;;16.43;52.85;101190.66;4371789;32;33004;-83
2024/04/12 01:07:18;;;;;;;0.68;0.68;;;;;;;16.28;53.35;101199.31;4384154;32;33671;-85
2024/04/12 01:09:45;;;;;;;0.52;0.52;;;;;;;16.24;53.58;101189.75;4373005;32;33560;-86
2024/04/12 01:12:17;;;;;;;0.10;0.10;;;;;;;16.27;53.20;101194.94;4370777;32;33993;-86
2024/04/12 01:14:44;;;;;;;1.10;0.55;;;;;;;16.28;53.09;101191.31;4383825;32;34064;-85
2024/04/12 01:17:11;;;;;;;10.48;1.27;;;;;;;16.11;53.65;101192.97;4382316;32;33792;-85
2024/04/12 01:19:38;;;;;;;1.30;1.17;;;;;;;16.19;53.57;101199.72;4373140;32;33498;-85
2024/04/12 01:22:05;;;;;;;0.43;0.43;;;;;;;16.12;53.83;101208.00;4377363;32;33518;-85
2024/04/12 01:24:33;;;;;;;0.37;0.37;;;;;;;16.01;53.84;101199.63;4384216;32;34537;-85
2024/04/12 01:27:05;;;;;;;1.77;0.98;;;;;;;15.88;54.60;101204.62;4389234;32;34331;-84
2024/04/12 01:29:32;;;;;;;0.10;0.10;;;;;;;16.09;53.73;101213.50;4372570;32;33653;-86
2024/04/12 01:32:03;;;;;;;5.30;0.85;;;;;;;15.92;54.29;101215.16;4384613;32;32309;-86
2024/04/12 01:34:31;;;;;;;0.85;0.45;;;;;;;15.92;54.20;101212.50;4372944;32;34877;-86
2024/04/12 01:37:03;;;;;;;0.47;0.47;;;;;;;15.88;54.44;101215.28;4373769;32;33283;-86
2024/04/12 01:39:29;;;;;;;0.70;0.37;;;;;;;15.97;54.37;101208.69;4383013;32;34430;-84
2024/04/12 01:41:56;;;;;;;0.37;0.37;;;;;;;15.91;54.25;101208.97;4385279;32;34482;-84
2024/04/12 01:44:24;;;;;;;3.33;0.70;;;;;;;15.75;54.75;101202.56;4387326;32;33604;-84
2024/04/12 01:46:52;;;;;;;1.05;0.57;;;;;;;15.82;54.61;101207.56;4387346;32;34846;-84
2024/04/12 01:49:22;;;;;;;1.10;0.85;;;;;;;15.73;55.02;101210.63;4384404;32;33978;-84
2024/04/12 01:51:49;;;;;;;2.17;0.62;;;;;;;15.81;54.63;101210.31;4376136;32;33210;-84
2024/04/12 01:54:17;;;;;;;0.22;0.22;;;;;;;15.84;54.52;101216.34;4373499;32;33799;-84
2024/04/12 01:56:48;;;;;;;0.65;0.65;;;;;;;15.75;54.67;101211.41;4398914;32;33861;-84
2024/04/12 01:59:15;;;;;;;0.47;0.47;;;;;;;15.64;55.22;101223.47;4360788;32;33926;-85
2024/04/12 02:01:46;;;;;;;0.35;0.20;;;;;;;15.63;55.17;101225.22;4387640;32;33114;-85
2024/04/12 02:04:18;;;;;;;0.22;0.22;;;;;;;15.62;55.29;101229.69;4385502;32;32733;-85
2024/04/12 02:06:45;;;;;;;1.60;1.20;;;;;;;15.69;55.09;101218.81;4389838;32;35945;-86
2024/04/12 02:09:15;;;;;;;0.60;0.60;;;;;;;15.73;54.69;101215.09;4385326;32;34303;-85
2024/04/12 02:11:45;;;;;;;0.75;0.47;;;;;;;15.70;54.61;101217.88;4383068;32;33842;-86
2024/04/12 02:14:12;;;;;;;0.60;0.47;;;;;;;15.46;55.42;101212.59;4404017;32;33785;-85
2024/04/12 02:16:41;;;;;;;0.52;0.40;;;;;;;15.56;55.39;101221.06;4396264;32;34800;-85
2024/04/12 02:19:13;;;;;;;0.82;0.82;;;;;;;15.71;55.01;101223.13;4378490;32;34070;-85
2024/04/12 02:21:40;;;;;;;2.37;0.98;;;;;;;15.59;55.19;101232.47;4376189;32;32313;-85
2024/04/12 02:24:08;;;;;;;0.40;0.40;;;;;;;15.58;55.11;101233.41;4381472;32;34053;-85
2024/04/12 02:26:37;;;;;;;1.52;1.00;;;;;;;15.47;55.61;101235.62;4387733;32;35204;-85
2024/04/12 02:29:04;;;;;;;1.95;0.75;;;;;;;15.44;55.67;101238.44;4358896;32;33414;-85
2024/04/12 02:31:31;;;;;;;0.40;0.10;;;;;;;15.41;55.74;101235.88;4387178;32;33523;-85
2024/04/12 02:34:00;;;;;;;0.98;0.98;;;;;;;15.35;55.91;101238.81;4396617;32;34011;-84
2024/04/12 02:36:30;;;;;;;0.77;0.77;;;;;;;15.32;56.19;101241.56;4385474;32;32591;-85
2024/04/12 02:39:06;;;;;;;1.05;0.65;;;;;;;15.25;56.22;101240.97;4384415;32;32595;-85
2024/04/12 02:41:37;;;;;;;0.70;0.43;;;;;;;15.43;55.61;101239.38;4372925;32;32304;-85
2024/04/12 02:44:06;;;;;;;0.85;0.50;;;;;;;15.30;56.21;101235.47;4384810;32;33517;-84
2024/04/12 02:46:32;;;;;;;0.60;0.60;;;;;;;15.42;55.89;101242.94;4398573;32;32447;-84
2024/04/12 02:49:04;;;;;;;0.73;0.62;;;;;;;15.32;56.33;101241.56;4387753;32;34339;-84
2024/04/12 02:51:31;;;;;;;2.40;1.30;;;;;;;15.37;55.84;101239.59;4374455;32;34103;-84
2024/04/12 02:53:57;;;;;;;1.10;1.02;;;;;;;15.23;56.68;101244.59;4395412;32;33901;-85
2024/04/12 02:56:25;;;;;;;1.27;1.23;;;;;;;15.39;56.02;101248.41;4382980;32;34154;-84
2024/04/12 02:58:52;;;;;;;0.95;0.57;;;;;;;15.51;55.26;101253.22;4382142;32;98985;-84
2024/04/12 03:01:26;;;;;;;0.50;0.35;;;;;;;14.96;57.17;101254.56;4385494;32;32956;-83
2024/04/12 03:03:55;;;;;;;0.77;0.77;;;;;;;15.01;57.29;101253.44;4384567;32;35733;-84
2024/04/12 03:06:23;;;;;;;1.23;0.60;;;;;;;15.08;57.01;101262.91;4369730;32;35538;-85
2024/04/12 03:08:51;;;;;;;0.85;0.60;;;;;;;15.06;57.29;101256.78;4400435;32;34932;-85
2024/04/12 03:11:25;;;;;;;0.30;0.30;;;;;;;15.06;57.09;101246.16;4375409;32;33591;-85
2024/04/12 03:13:56;;;;;;;0.22;0.22;;;;;;;14.94;57.45;101254.59;4371040;32;35778;-84
2024/04/12 03:16:24;;;;;;;0.30;0.30;;;;;;;14.99;57.39;101259.75;4383792;32;34215;-84
2024/04/12 03:18:51;;;;;;;1.60;1.15;;;;;;;14.80;58.07;101262.25;4389763;32;34832;-84
2024/04/12 03:21:24;;;;;;;0.20;0.17;;;;;;;14.94;57.53;101254.59;4382772;32;35152;-84
2024/04/12 03:23:51;;;;;;;0.77;0.77;;;;;;;14.95;57.55;101256.31;4384916;32;32706;-85
2024/04/12 03:26:21;;;;;;;0.25;0.25;;;;;;;14.97;57.37;101262.47;4401664;32;34075;-85
2024/04/12 03:28:55;;;;;;;0.25;0.25;;;;;;;14.92;57.50;101263.59;4376643;32;33949;-85
2024/04/12 03:31:25;;;;;;;0.30;0.30;;;;;;;15.00;56.88;101273.00;4378904;32;33450;-85
2024/04/12 03:33:56;;;;;;;0.28;0.28;;;;;;;14.76;57.90;101272.13;4397019;32;34096;-85
2024/04/12 03:41:56;;;;;;;0.80;0.80;;;;;;;14.64;58.21;101274.37;4373955;32;33310;-84
2024/04/12 03:44:30;;;;;;;0.05;0.05;;;;;;;14.48;58.97;101274.06;4359651;32;32082;-84
2024/04/12 03:47:08;;;;;;;5.20;1.70;;;;;;;14.50;58.64;101282.88;4371044;32;34021;-84
2024/04/12 03:49:38;;;;;;;1.48;1.37;;;;;;;14.60;58.33;101284.25;4383852;32;32340;-84
2024/04/12 03:52:11;;;;;;;0.55;0.55;;;;;;;14.62;57.95;101287.72;4379317;32;33062;-84
2024/04/12 03:54:38;;;;;;;;;;;;;;;14.69;57.91;101286.56;4395361;32;34054;-84
2024/04/12 03:57:06;;;;;;;1.05;0.88;;;;;;;14.50;58.01;101288.19;4383391;32;34288;-84
2024/04/12 03:59:34;;;;;;;2.25;1.42;;;;;;;14.50;58.31;101296.16;4400285;32;34339;-84
2024/04/12 04:02:07;;;;;;;1.15;0.90;;;;;;;14.41;58.43;101296.44;4397825;32;34458;-85
2024/04/12 04:04:38;;;;;;;1.10;0.73;;;;;;;14.32;58.66;101294.97;4378314;32;32686;-84
2024/04/12 04:07:05;;;;;;;0.40;0.40;;;;;;;14.28;58.96;101293.34;4390585;32;33115;-84
2024/04/12 04:09:32;;;;;;;0.15;0.08;;;;;;;14.25;59.15;101298.78;4392563;32;34757;-85
2024/04/12 04:11:59;;;;;;;0.10;0.10;;;;;;;14.31;58.90;101299.44;4385522;32;32486;-85
2024/04/12 04:14:26;;;;;;;0.93;0.93;;;;;;;14.28;58.60;101298.66;4396806;32;34350;-85
2024/04/12 04:16:55;;;;;;;0.30;0.30;;;;;;;14.27;58.99;101304.91;4384814;32;34258;-85
2024/04/12 04:19:30;;;;;;;1.62;0.35;;;;;;;14.13;58.89;101293.88;4380646;32;34117;-85
2024/04/12 04:22:01;;;;;;;1.00;0.40;;;;;;;14.41;57.99;101304.41;4391536;32;33027;-84
2024/04/12 04:24:32;;;;;;;0.13;0.13;;;;;;;14.23;58.38;101297.97;4385936;32;32673;-83
2024/04/12 04:27:00;;;;;;;0.30;0.30;;;;;;;14.18;58.89;101302.56;4394907;32;33966;-83
2024/04/12 04:29:27;;;;;;;1.37;1.27;;;;;;;14.54;57.60;101309.28;4369920;32;33295;-84
2024/04/12 04:31:54;;;;;;;2.35;1.00;;;;;;;14.13;58.96;101315.13;4385041;32;33596;-84
2024/04/12 04:34:22;;;;;;;0.40;0.40;;;;;;;13.86;60.32;101308.97;4394661;32;34668;-84
2024/04/12 04:36:49;;;;;;;1.37;0.73;;;;;;;13.91;60.31;101313.22;4392949;32;34599;-84
2024/04/12 04:39:17;;;;;;;1.08;1.02;;;;;;;13.98;60.24;101320.06;4393552;32;33987;-84
2024/04/12 04:41:51;;;;;;;0.50;0.25;;;;;;;14.11;59.65;101319.66;4384387;32;32583;-84
2024/04/12 04:44:18;;;;;;;0.75;0.55;;;;;;;14.20;59.78;101314.03;4378125;32;34647;-84
2024/04/12 04:46:46;;;;;;;0.65;0.65;;;;;;;14.43;58.94;101318.50;4395029;32;33701;-84
2024/04/12 04:49:13;;;;;;;0.60;0.60;;;;;;;14.56;58.75;101320.72;4390615;32;34917;-84
2024/04/12 04:51:40;;;;;;;2.00;1.45;;;;;;;14.14;60.25;101312.41;4371747;32;33075;-84
2024/04/12 04:54:11;;;;;;;0.35;0.35;;;;;;;14.58;58.99;101316.22;4380163;32;33962;-84
2024/04/12 04:56:41;;;;;;;0.62;0.55;;;;;;;14.78;59.00;101319.94;4382591;32;34600;-84
2024/04/12 04:59:16;;;;;;;2.83;2.60;;;;;;;14.70;59.38;101317.56;4375464;32;34863;-84
2024/04/12 05:01:49;;;;;;;12.75;2.08;;;;;;;14.09;61.37;101320.53;4397187;32;34929;-84
2024/04/12 05:04:20;;;;;;;0.88;0.77;;;;;;;14.29;61.38;101317.22;4381091;32;35166;-84
2024/04/12 05:06:48;;;;;;;1.02;1.02;;;;;;;14.65;59.68;101318.66;4384739;32;33663;-83
2024/04/12 05:09:18;;;;;;;0.62;0.62;;;;;;;14.53;60.50;101326.16;4372294;32;34788;-84
2024/04/12 05:11:49;;;;;;;1.10;0.97;;;;;;;14.20;61.54;101329.97;4386962;32;32777;-86
2024/04/12 05:17:07;;;;;;;1.85;0.80;;;;;;;14.84;59.90;101338.31;4375056;32;33523;-86
2024/04/12 05:19:40;;;;;;;0.52;0.52;;;;;;;14.48;60.85;101336.09;4396457;32;34235;-86
2024/04/12 05:22:09;;;;;;;1.30;0.95;;;;;;;14.45;61.42;101337.94;4360987;32;34037;-86
2024/04/12 05:24:35;;;;;;;0.20;0.20;;;;;;;14.63;61.30;101334.66;4396503;32;34125;-85
2024/04/12 05:27:06;;;;;;;0.52;0.52;;;;;;;14.92;59.97;101330.94;4382423;32;33431;-85
2024/04/12 05:29:34;;;;;;;1.00;0.90;;;;;;;14.75;60.74;101328.87;4383021;32;34765;-85
2024/04/12 05:32:00;;;;;;;0.65;0.47;;;;;;;15.21;59.54;101334.28;4371294;32;34807;-83
2024/04/12 05:34:27;;;;;;;1.17;1.17;;;;;;;14.96;60.40;101340.53;4373004;32;33022;-86
2024/04/12 05:37:03;;;;;;;0.77;0.77;;;;;;;15.39;59.16;101332.72;4348765;32;34189;-86
2024/04/12 05:39:33;;;;;;;0.70;0.57;;;;;;;15.69;58.32;101333.31;4394263;32;34826;-86
2024/04/12 05:42:00;;;;;;;2.33;1.48;;;;;;;15.64;58.66;101340.62;4372799;32;34381;-86
2024/04/12 05:44:28;;;;;;;1.30;1.20;;;;;;;15.42;59.86;101333.44;4384926;32;32412;-87
2024/04/12 05:46:55;;;;;;;1.80;1.70;;;;;;;15.45;60.25;101345.78;4396206;32;32743;-86
2024/04/12 05:49:22;;;;;;;0.68;0.52;;;;;;;15.19;60.78;101352.09;4379466;32;33887;-86
2024/04/12 05:51:49;;;;;;;4.15;2.50;;;;;;;15.95;58.35;101349.09;4371110;32;32121;-86
2024/04/12 05:54:16;;;;;;;3.72;2.03;;;;;;;16.12;58.54;101348.38;4381638;32;33997;-88
2024/04/12 05:56:47;;;;;;;1.08;0.95;;;;;;;16.33;57.88;101357.25;4371326;32;34938;-89
2024/04/12 05:59:14;;;;;;;2.40;1.23;;;;;;;16.36;57.26;101360.66;4374526;32;32882;-89
2024/04/12 06:01:46;;;;;;;3.20;1.55;;;;;;;16.28;58.00;101360.09;4399470;32;33100;-89
2024/04/12 06:04:15;;;;;;;1.48;0.85;;;;;;;16.48;57.45;101364.59;4386052;32;32913;-88
2024/04/12 06:06:44;;;;;;;1.35;1.25;;;;;;;16.60;56.27;101352.53;4374986;32;33389;-88
2024/04/12 06:09:20;;;;;;;1.00;1.00;;;;;;;16.64;56.79;101351.47;4384468;32;34155;-83
2024/04/12 06:11:56;;;;;;;1.10;1.05;;;;;;;16.94;55.54;101359.06;4399217;32;32841;-83
2024/04/12 06:14:26;;;;;;;3.22;2.95;;;;;;;17.00;55.20;101350.78;4388658;32;33039;-84
2024/04/12 06:16:57;;;;;;;1.62;1.52;;;;;;;17.14;55.68;101351.87;4382904;32;33520;-83
2024/04/12 06:19:26;;;;;;;2.08;1.83;;;;;;;17.29;52.66;101349.44;4394839;32;33988;-83
2024/04/12 06:21:57;;;;;;;2.50;1.85;;;;;;;17.37;53.27;101350.78;4375076;32;33385;-83
2024/04/12 06:24:26;;;;;;;0.45;0.45;;;;;;;17.58;52.72;101348.91;4399316;32;34010;-83
2024/04/12 06:26:55;;;;;;;1.30;1.20;;;;;;;17.51;53.01;101351.94;4400161;32;34085;-84
2024/04/12 06:29:22;;;;;;;6.20;0.95;;;;;;;17.39;52.01;101350.72;4385371;32;34501;-84
2024/04/12 06:31:50;;;;;;;1.55;1.30;;;;;;;17.80;51.35;101354.12;4392987;32;33786;-84
2024/04/12 06:34:19;;;;;;;3.70;1.60;;;;;;;18.17;49.52;101346.91;4390109;32;34467;-83
2024/04/12 06:36:46;;;;;;;0.70;0.70;;;;;;;18.30;47.84;101347.16;4358876;32;34714;-83
2024/04/12 06:39:15;;;;;;;4.32;1.17;;;;;;;18.03;49.42;101344.06;4383081;32;34919;-83
2024/04/12 06:41:45;;;;;;;1.35;1.25;;;;;;;18.39;48.82;101338.66;4384373;32;32639;-84
2024/04/12 06:44:19;;;;;;;1.98;1.75;;;;;;;18.07;49.10;101338.50;4372345;32;34065;-84
2024/04/12 06:46:51;;;;;;;0.52;0.47;;;;;;;18.01;48.46;101341.50;4383462;32;34071;-88
2024/04/12 06:49:26;;;;;;;0.45;0.45;;;;;;;18.12;48.36;101341.78;4386818;32;34192;-84
2024/04/12 06:52:12;;;;;;;1.50;0.95;;;;;;;18.76;46.93;101337.63;4377108;32;33926;-84
2024/04/12 06:54:44;;;;;;;0.85;0.85;;;;;;;18.67;46.56;101336.28;4367983;32;34439;-84
2024/04/12 06:57:24;;;;;;;;;;;;;;;18.61;45.99;101341.97;4379890;32;33123;-84
2024/04/12 06:59:54;;;;;;;0.88;0.57;;;;;;;18.65;46.09;101338.16;4378920;32;34324;-84
2024/04/12 07:02:24;;;;;;;0.35;0.35;;;;;;;18.72;46.17;101343.22;4384423;32;31738;-84
2024/04/12 07:04:53;;;;;;;8.18;2.28;;;;;;;19.01;45.80;101342.53;4383662;32;33281;-85
2024/04/12 07:07:22;;;;;;;5.05;1.90;;;;;;;18.84;45.67;101345.25;4399905;32;32936;-84
2024/04/12 07:09:59;;;;;;;1.50;1.15;;;;;;;18.90;45.57;101345.78;4368740;32;33197;-84
2024/04/12 07:12:27;;;;;;;0.68;0.52;;;;;;;18.89;45.77;101346.72;4379248;32;34091;-84
2024/04/12 07:14:56;;;;;;;0.80;0.77;;;;;;;19.23;44.99;101344.00;4372860;32;32476;-85
2024/04/12 07:17:23;;;;;;;1.65;1.33;;;;;;;19.54;45.39;101345.84;4385418;32;34025;-84
2024/04/12 07:19:51;;;;;;;0.47;0.47;;;;;;;19.48;45.87;101339.03;4398926;32;33882;-84
2024/04/12 07:22:18;;;;;;;13.65;1.42;;;;;;;20.09;43.96;101342.72;4384019;32;33072;-84
2024/04/12 07:24:52;;;;;;;1.90;1.35;;;;;;;19.93;44.58;101334.69;4373659;32;33336;-84
2024/04/12 07:27:27;;;;;;;1.08;0.98;;;;;;;19.79;44.75;101342.66;4397275;32;34541;-84
2024/04/12 07:29:54;;;;;;;0.80;0.80;;;;;;;20.15;44.34;101335.16;4382744;32;34961;-85
2024/04/12 07:32:25;;;;;;;0.98;0.60;;;;;;;20.19;44.38;101344.75;4398407;32;34105;-84
2024/04/12 07:34:51;;;;;;;0.20;0.20;;;;;;;19.90;43.76;101341.09;4398307;32;33403;-84
2024/04/12 07:37:31;;;;;;;0.65;0.65;;;;;;;20.54;43.02;101332.88;4382175;32;34041;-84
2024/04/12 07:40:17;;;;;;;0.60;0.60;;;;;;;20.16;43.94;101338.69;4393941;32;33680;-84
2024/04/12 07:42:45;;;;;;;0.60;0.60;;;;;;;20.15;44.22;101342.34;4393817;32;34380;-84
2024/04/12 07:45:17;;;;;;;0.45;0.45;;;;;;;20.32;44.19;101341.31;4399917;32;32780;-85
2024/04/12 07:47:53;;;;;;;2.87;1.85;;;;;;;20.30;44.14;101345.94;4400444;32;33304;-84
2024/04/12 07:50:28;;;;;;;1.33;1.23;;;;;;;20.65;43.85;101333.97;4385801;32;33177;-85
2024/04/12 07:52:59;;;;;;;1.35;1.25;;;;;;;21.13;43.68;101337.22;4383623;32;31951;-84
2024/04/12 07:55:26;;;;;;;1.67;1.23;;;;;;;21.05;42.46;101341.34;4388595;32;35002;-84
2024/04/12 07:57:52;;;;;;;0.50;0.45;;;;;;;20.64;44.03;101344.78;4382905;32;32414;-84
2024/04/12 08:00:36;;;;;;;0.73;0.68;;;;;;;20.89;42.66;101346.84;4387277;32;34256;-84
2024/04/12 08:03:06;;;;;;;1.40;1.30;;;;;;;20.97;43.00;101344.50;4373891;32;33967;-85
2024/04/12 08:05:59;;;;;;;9.30;2.58;;;;;;;21.12;42.31;101337.31;4383414;32;34171;-84
2024/04/12 08:08:30;;;;;;;12.20;1.75;;;;;;;21.15;42.73;101326.38;4384410;32;34319;-84
2024/04/12 08:10:57;;;;;;;2.75;1.80;;;;;;;21.21;42.55;101326.84;4395199;32;34427;-84
2024/04/12 08:13:28;;;;;;;0.93;0.93;;;;;;;21.29;42.56;101322.81;4382220;32;34594;-84
2024/04/12 08:15:59;;;;;;;2.83;0.70;;;;;;;21.29;42.58;101318.28;4383377;32;34253;-84
2024/04/12 08:18:26;;;;;;;1.85;1.00;;;;;;;21.34;42.34;101320.72;4385759;32;32848;-84
2024/04/12 08:21:01;;;;;;;0.57;0.57;;;;;;;21.36;43.65;101319.62;4391449;32;34806;-83
2024/04/12 08:23:29;;;;;;;9.25;1.02;;;;;;;21.76;42.63;101322.44;4396720;32;32981;-84
2024/04/12 08:25:58;;;;;;;1.12;0.98;;;;;;;21.67;42.74;101326.56;4398617;32;32563;-84
2024/04/12 08:28:24;;;;;;;0.80;0.75;;;;;;;21.70;42.41;101329.06;4393679;32;33038;-84
2024/04/12 08:30:51;;;;;;;0.95;0.93;;;;;;;21.73;43.01;101311.87;4382303;32;33230;-84
2024/04/12 08:33:24;;;;;;;1.37;1.25;;;;;;;21.76;42.88;101317.03;4377833;32;33576;-84
2024/04/12 08:35:55;;;;;;;0.28;0.28;;;;;;;22.20;43.10;101311.37;4384929;32;34066;-84
2024/04/12 08:38:23;;;;;;;1.58;0.73;;;;;;;22.38;42.03;101320.03;4378161;32;34311;-84
2024/04/12 08:40:52;;;;;;;4.32;2.08;;;;;;;22.02;41.73;101311.75;4398121;32;34062;-84
2024/04/12 08:43:19;;;;;;;4.28;1.42;;;;;;;22.39;41.56;101315.50;4378181;32;32795;-84
2024/04/12 08:45:48;;;;;;;2.80;1.50;;;;;;;22.51;41.71;101311.97;4370229;32;34692;-84
2024/04/12 08:48:15;;;;;;;1.15;0.90;;;;;;;22.57;41.66;101303.47;4392867;32;34042;-84
2024/04/12 08:50:48;;;;;;;3.58;2.05;;;;;;;22.60;42.36;101303.25;4385368;32;33634;-84
2024/04/12 08:53:20;;;;;;;1.55;1.15;;;;;;;22.72;41.17;101301.50;4379390;32;33032;-84
2024/04/12 08:55:47;;;;;;;0.68;0.68;;;;;;;23.03;40.46;101305.63;4394748;32;33942;-84
2024/04/12 08:58:20;;;;;;;1.20;1.08;;;;;;;23.13;40.49;101305.81;4388888;32;35514;-84
2024/04/12 09:00:49;;;;;;;1.10;1.10;;;;;;;23.03;40.81;101297.53;4369812;32;35471;-84
2024/04/12 09:03:25;;;;;;;0.57;0.57;;;;;;;22.45;42.08;101304.31;4376763;32;33270;-84
2024/04/12 09:05:53;;;;;;;1.15;0.95;;;;;;;22.81;41.89;101294.63;4369547;32;34290;-84
2024/04/12 09:08:28;;;;;;;0.77;0.77;;;;;;;23.01;41.33;101291.37;4389079;32;34094;-84
2024/04/12 09:10:59;;;;;;;1.90;1.23;;;;;;;23.46;40.77;101294.41;4376793;32;33839;-84
2024/04/12 09:13:27;;;;;;;3.17;1.37;;;;;;;23.04;40.84;101293.88;4350716;32;32895;-84
2024/04/12 09:15:54;;;;;;;4.07;1.37;;;;;;;23.27;41.59;101292.19;4371504;32;33664;-84
2024/04/12 09:18:26;;;;;;;3.47;2.42;;;;;;;23.43;40.33;101291.91;4377093;32;34010;-84
2024/04/12 09:21:01;;;;;;;3.97;1.00;;;;;;;23.50;40.35;101298.59;4398043;32;34145;-84
2024/04/12 09:23:41;;;;;;;2.28;1.20;;;;;;;23.48;40.61;101295.97;4400683;32;32133;-84
2024/04/12 09:26:22;;;;;;;0.68;0.57;;;;;;;23.96;40.01;101295.13;4376294;32;34368;-84
2024/04/12 09:28:51;;;;;;;0.77;0.70;;;;;;;24.06;38.48;101287.19;4365687;32;33154;-84
2024/04/12 09:36:56;;;;;;;6.80;0.90;;;;;;;23.63;41.17;101277.78;4389382;32;34192;-84
2024/04/12 09:39:24;;;;;;;2.10;1.55;;;;;;;23.57;39.94;101275.56;4376426;32;35433;-85
2024/04/12 09:42:02;;;;;;;5.75;1.73;;;;;;;23.96;39.88;101273.56;4392205;32;33355;-84
2024/04/12 09:44:48;;;;;;;4.95;1.45;;;;;;;23.97;38.63;101272.56;4375249;32;34910;-84
2024/04/12 10:37:47;;;;;;;0.88;0.88;;;;;;;24.47;38.40;101238.13;4389895;32;33186;-84
2024/04/12 10:40:14;;;;;;;5.70;2.55;;;;;;;24.60;37.92;101236.19;4377361;32;32501;-84
2024/04/12 10:42:45;;;;;;;0.98;0.98;;;;;;;24.11;37.79;101233.75;4378029;32;33091;-84
2024/04/12 10:45:15;;;;;;;5.37;1.62;;;;;;;24.87;36.32;101230.37;4380630;32;33567;-84
2024/04/12 10:47:47;;;;;;;0.73;0.73;;;;;;;24.94;36.45;101228.91;4379542;32;34447;-84
2024/04/12 10:50:15;;;;;;;1.08;1.08;;;;;;;24.68;36.45;101222.91;4378286;32;32658;-84
2024/04/12 10:52:43;;;;;;;0.70;0.70;;;;;;;25.08;36.21;101214.28;4370767;32;33628;-85
2024/04/12 10:55:09;;;;;;;1.45;1.27;;;;;;;24.92;36.01;101222.75;4377768;32;31929;-84
2024/04/12 10:57:40;;;;;;;1.33;1.23;;;;;;;25.50;36.15;101217.13;4376240;32;34823;-84
2024/04/12 11:00:07;;;;;;;1.42;1.33;;;;;;;25.37;34.98;101213.72;4389767;32;33866;-85
2024/04/12 11:02:35;;;;;;;2.50;1.20;;;;;;;25.37;35.84;101213.72;4391947;32;33604;-84
2024/04/12 11:07:47;;;;;;;1.45;0.80;;;;;;;26.05;34.36;101213.28;4400191;32;34234;-84
2024/04/12 11:10:25;;;;;;;3.47;1.95;;;;;;;26.01;34.33;101208.28;4396629;32;33514;-84
2024/04/12 11:12:59;;;;;;;3.00;1.52;;;;;;;26.26;34.11;101215.12;4400952;32;34801;-84
2024/04/12 11:32:12;;;;;;;0.25;0.25;;;;;;;27.11;31.54;101186.81;4372575;32;34302;-84
2024/04/12 11:34:42;;;;;;;1.48;1.33;;;;;;;27.43;28.78;101176.56;4400914;32;34397;-85
2024/04/12 11:37:09;;;;;;;1.15;1.05;;;;;;;27.20;30.07;101175.97;4402327;32;33979;-85
2024/04/12 11:39:37;;;;;;;8.40;1.40;;;;;;;26.63;31.51;101172.13;4399604;32;34119;-85
2024/04/12 11:42:05;;;;;;;0.98;0.98;;;;;;;27.40;30.16;101167.88;4397305;32;34470;-85
2024/04/12 11:44:33;;;;;;;0.95;0.77;;;;;;;27.35;30.90;101167.44;4374057;32;35022;-85
2024/04/12 11:47:03;;;;;;;3.37;1.10;;;;;;;27.31;31.37;101161.47;4399571;32;34147;-85
2024/04/12 11:49:45;;;;;;;1.00;0.95;;;;;;;27.18;30.80;101161.72;4400561;32;34762;-85
2024/04/12 11:52:16;;;;;;;0.85;0.85;;;;;;;27.41;30.49;101150.59;4388267;32;34092;-85
2024/04/12 11:54:46;;;;;;;2.20;1.42;;;;;;;27.26;30.86;101144.75;4386783;32;32874;-84
2024/04/12 11:57:14;;;;;;;0.73;0.73;;;;;;;27.50;30.74;101138.91;4372687;32;35410;-84
2024/04/12 11:59:43;;;;;;;1.27;1.15;;;;;;;27.44;30.64;101137.63;4386605;32;35323;-84
2024/04/12 12:02:14;;;;;;;0.75;0.75;;;;;;;26.82;30.25;101138.81;4390046;32;34716;-84
2024/04/12 12:04:41;;;;;;;1.35;1.25;;;;;;;26.87;30.17;101136.56;4365752;32;32898;-84
2024/04/12 12:07:09;;;;;;;1.73;0.82;;;;;;;26.71;29.62;101133.50;4374840;32;34208;-85
2024/04/12 12:09:37;;;;;;;1.15;0.77;;;;;;;27.10;28.10;101131.75;4391554;32;34152;-85
2024/04/12 12:12:11;;;;;;;10.20;1.80;;;;;;;26.63;29.58;101136.03;4365632;32;34661;-85
2024/04/12 12:14:41;;;;;;;0.75;0.75;;;;;;;26.92;28.80;101119.84;4384044;32;34058;-85
2024/04/12 12:17:16;;;;;;;0.35;0.35;;;;;;;26.83;27.85;101118.84;4387420;32;33832;-84
2024/04/12 12:19:46;;;;;;;0.45;0.45;;;;;;;26.99;27.33;101118.31;4370053;32;33428;-85
2024/04/12 12:22:13;;;;;;;8.48;1.10;;;;;;;27.23;27.62;101116.06;4366577;32;33148;-86
2024/04/12 12:24:40;;;;;;;0.40;0.37;;;;;;;27.04;26.92;101110.59;4370537;32;33694;-85
2024/04/12 12:27:08;;;;;;;1.37;1.20;;;;;;;26.91;27.62;101104.59;4375658;32;32811;-85
2024/04/12 12:29:36;;;;;;;0.22;0.22;;;;;;;27.66;26.42;101101.16;4362255;32;32607;-85
2024/04/12 12:32:03;;;;;;;13.15;1.45;;;;;;;27.55;27.17;101104.03;4376060;32;31919;-85
2024/04/12 12:34:33;;;;;;;0.77;0.75;;;;;;;27.67;28.64;101094.72;4389887;32;34364;-85
2024/04/12 12:37:00;;;;;;;0.65;0.62;;;;;;;27.78;26.38;101083.75;4390885;32;34681;-85
2024/04/12 12:39:31;;;;;;;0.80;0.65;;;;;;;28.05;25.72;101085.63;4377511;32;32959;-85
2024/04/12 12:41:58;;;;;;;0.30;0.30;;;;;;;27.70;25.40;101083.59;4377220;32;34036;-85
2024/04/12 12:44:28;;;;;;;0.22;0.22;;;;;;;28.09;24.38;101075.34;4338736;32;34634;-85
2024/04/12 12:46:59;;;;;;;1.08;0.90;;;;;;;27.97;24.60;101073.84;4378543;32;33888;-85
2024/04/12 12:49:25;;;;;;;0.22;0.22;;;;;;;28.14;24.72;101066.75;4390045;32;34076;-85
2024/04/12 12:51:52;;;;;;;0.30;0.20;;;;;;;27.99;25.91;101063.66;4365248;32;32970;-85
2024/04/12 12:54:18;;;;;;;0.35;0.30;;;;;;;28.14;24.89;101056.72;4377393;32;34644;-84
2024/04/12 12:56:46;;;;;;;0.40;0.40;;;;;;;28.02;24.97;101052.53;4364206;32;34892;-85
2024/04/12 12:59:12;;;;;;;5.93;0.80;;;;;;;27.52;26.19;101055.50;4376206;32;34116;-85
2024/04/12 13:01:41;;;;;;;4.62;0.98;;;;;;;27.77;26.29;101046.75;4384348;32;35741;-89
2024/04/12 13:04:12;;;;;;;0.62;0.60;;;;;;;27.49;26.53;101040.37;4391560;32;33111;-85